Nearby METAR Reports

 

KBFI - Seattle/Boeing, Washington, USA
Distance from station: S 10mi, 16km
Updated: Sun, 16-Dec-2018 9:53pm PST
Partly cloudy
Partly cloudy
 Wind from S
Wind: S 10 mph , 17 km/h
Temperature: 50°F , 10°C
Wind Chill: 46°F , 8°C
Dew Point: 45°F , 7°C
Humidity: 82%
Barometer: 29.85 inHg , 1010.8 hPa
Clouds: Partly cloudy
Visibility: 10 miles , 16 km
Cloud details: Few Clouds 2000 ft
Partly cloudy 8000 ft
2018/12/17 05:53 KBFI 170553Z 19009KT 10SM FEW020 SCT080 10/07 A2985 RMK AO2 RAB0454E29 SLP106 P0004 60014 T01000072 10111 20100 53034
KRNT - Renton, Washington, USA
Distance from station: SSE 14mi, 23km
Updated: Sun, 16-Dec-2018 10:53pm PST
Partly cloudy
Partly cloudy
 Wind from SE
Wind: SE 7 mph , 11 km/h
Temperature: 50°F , 10°C
Wind Chill: 47°F , 8°C
Dew Point: 48°F , 9°C
Humidity: 94%
Barometer: 29.88 inHg , 1011.9 hPa
Clouds: Partly cloudy
Visibility: 10 miles , 16 km
Cloud details: Partly cloudy 5500 ft
2018/12/17 06:53 KRNT 170653Z AUTO 14006KT 10SM SCT055 10/09 A2988 RMK AO2 SLP122 T01000094
 
KPAE - Everett, Washington, USA
Distance from station: N 15mi, 25km
Updated: Sun, 16-Dec-2018 10:53pm PST
Clear
Clear
 Wind from SSE
Wind: SSE 22 mph , 35 km/h
Temperature: 46°F , 8°C
Wind Chill: 38°F , 3°C
Dew Point: 45°F , 7°C
Humidity: 93%
Barometer: 29.84 inHg , 1010.5 hPa
Clouds: Clear
Visibility: 10 miles , 16 km
2018/12/17 06:53 KPAE 170653Z AUTO 16019KT 10SM CLR 08/07 A2984 RMK AO2 PK WND 16030/0631 SLP107 T00830072
KSEA - Seattle/Metro, Washington, USA
Distance from station: S 17mi, 27km
Updated: Sun, 16-Dec-2018 10:53pm PST
Partly cloudy
Partly cloudy
 Wind from S
Wind: S 12 mph , 19 km/h
Temperature: 50°F , 10°C
Wind Chill: 45°F , 7°C
Dew Point: 45°F , 7°C
Humidity: 82%
Barometer: 29.87 inHg , 1011.5 hPa
Clouds: Partly cloudy
Visibility: 10 miles , 16 km
Cloud details: Partly cloudy 5500 ft
Partly cloudy 8000 ft
2018/12/17 06:53 KSEA 170653Z 17010KT 10SM SCT055 SCT080 10/07 A2987 RMK AO2 SLP122 T01000067
 
KPWT - Bremerton Ntnl, Washington, USA
Distance from station: SW 24mi, 39km
Updated: Sun, 16-Dec-2018 10:26pm PST
Light rain, Overcast
Light rain, Overcast
 Wind from SSW
Wind: SSW 9 mph , 15 km/h
Temperature: 46°F , 8°C
Wind Chill: 41°F , 5°C
Dew Point: 46°F , 8°C
Humidity: 100%
Barometer: 29.85 inHg , 1010.8 hPa
Summary: Light rain
Clouds: Overcast
Visibility: 10 miles , 16 km
Cloud details: Mostly cloudy 500 ft
Overcast 1400 ft
2018/12/17 06:26 KPWT 170626Z AUTO 21008KT 10SM -RA BKN005 OVC014 08/08 A2985 RMK AO2 RAB18 P0000
KTIW - Tacoma, Washington, USA
Distance from station: SSW 32mi, 52km
Updated: Sun, 16-Dec-2018 10:53pm PST
Few Clouds
Few Clouds
 Wind from S
Wind: S 10 mph , 17 km/h
Temperature: 48°F , 9°C
Wind Chill: 44°F , 7°C
Dew Point: 45°F , 7°C
Humidity: 87%
Barometer: 29.89 inHg , 1012.2 hPa
Clouds: Few Clouds
Visibility: 10 miles , 16 km
Cloud details: Few Clouds 5500 ft
2018/12/17 06:53 KTIW 170653Z AUTO 18009KT 10SM FEW055 09/07 A2989 RMK AO2 SLP122 T00890072
 
KAWO - Arlington Muni, Washington, USA
Distance from station: N 33mi, 54km
Updated: Sun, 16-Dec-2018 10:53pm PST
Mostly cloudy
Mostly cloudy
 Wind from SSE
Wind: SSE 15 mph , 24 km/h
Temperature: 48°F , 9°C
Wind Chill: 42°F , 6°C
Dew Point: 45°F , 7°C
Humidity: 87%
Barometer: 29.85 inHg , 1010.8 hPa
Clouds: Mostly cloudy
Visibility: 10 miles , 16 km
Cloud details: Mostly cloudy 2200 ft
2018/12/17 06:53 KAWO 170653Z AUTO 15013KT 10SM BKN022 09/07 A2985 RMK AO2 PK WND 16026/0627 PRESRR
KTCM - Tacoma/Mc Chord, Washington, USA
Distance from station: S 41mi, 65km
Updated: Sun, 16-Dec-2018 9:58pm PST
Partly cloudy
Partly cloudy
 Wind from SSW
Wind: SSW 12 mph , 19 km/h
Temperature: 50°F , 10°C
Wind Chill: 45°F , 7°C
Dew Point: 50°F , 10°C
Humidity: 100%
Barometer: 29.87 inHg , 1011.5 hPa
Clouds: Partly cloudy
Visibility: 10 miles , 16 km
Cloud details: Partly cloudy 5000 ft
2018/12/17 05:58 KTCM 170558Z AUTO 21010KT 10SM SCT050 10/10 A2987 RMK AO2 RAE04 SLP120 P0000 60006 T00950095 10114 20094 52037 $
 
KPLU - Puyallup/Thun, Washington, USA
Distance from station: S 41mi, 66km
Updated: Sun, 16-Dec-2018 10:35pm PST
Overcast
Overcast
 Wind from S
Wind: S 7 mph , 11 km/h
Temperature: 52°F , 11°C
Dew Point: 45°F , 7°C
Humidity: 77%
Barometer: 29.89 inHg , 1012.2 hPa
Clouds: Overcast
Visibility: 10 miles , 16 km
Cloud details: Few Clouds 4800 ft
Mostly cloudy 5500 ft
Overcast 11000 ft
2018/12/17 06:35 KPLU 170635Z AUTO 19006KT 10SM FEW048 BKN055 OVC110 11/07 A2989 RMK AO2
KGRF - Fort Lewis/Gray, Washington, USA
Distance from station: SSW 45mi, 72km
Updated: Sun, 16-Dec-2018 9:58pm PST
Mostly cloudy
Mostly cloudy
 Wind from SSE
Wind: SSE 6 mph , 9 km/h
Temperature: 48°F , 9°C
Wind Chill: 45°F , 7°C
Dew Point: 48°F , 9°C
Humidity: 100%
Barometer: 29.86 inHg , 1011.2 hPa
Clouds: Mostly cloudy
Visibility: 10 miles , 16 km
Cloud details: Mostly cloudy 5500 ft
2018/12/17 05:58 KGRF 170558Z AUTO 16005KT 10SM BKN055 09/09 A2986 RMK AO2 SLP117 60005 T00930093 10114 20092 52037 $
 
KNUW - Whidbey Is. Nas, Washington, USA
Distance from station: NNW 48mi, 77km
Updated: Sun, 16-Dec-2018 9:56pm PST
Mostly cloudy
Mostly cloudy
 Wind from N
Wind: N 3 mph , 6 km/h
Temperature: 52°F , 11°C
Dew Point: 46°F , 8°C
Humidity: 82%
Barometer: 29.81 inHg , 1009.5 hPa
Clouds: Mostly cloudy
Visibility: 10 miles , 16 km
Cloud details: Few Clouds 1300 ft
Mostly cloudy 1800 ft
Mostly cloudy 2600 ft
2018/12/17 05:56 KNUW 170556Z 36003KT 10SM FEW013 BKN018 BKN026 11/08 A2981 RMK RAB12E44 SLP093 P0009 60009 T01060078 10128 20100 51036
KSHN - Shelton, Washington, USA
Distance from station: SW 50mi, 80km
Updated: Sun, 16-Dec-2018 10:53pm PST
Overcast
Overcast
 Wind from S
Wind: S 7 mph , 11 km/h
Temperature: 48°F , 9°C
Wind Chill: 45°F , 7°C
Dew Point: 45°F , 7°C
Humidity: 87%
Barometer: 29.86 inHg , 1011.2 hPa
Clouds: Overcast
Visibility: 10 miles , 16 km
Cloud details: Overcast 2400 ft
2018/12/17 06:53 KSHN 170653Z AUTO 18006KT 10SM OVC024 09/07 A2986 RMK AO2 RAB36E45 SLP113 P0000 T00890067